CheckWX is a tool to help pilots better visualize weather data.  It is not intended as a substitute for an official pre-flight weather briefing.

22:11:21 UTC

CYOO TAF
Oshawa Airport
Oshawa, Canada
TAF CYOO 201939Z 2020/2108 18010G20KT P6SM FEW040 SCT120 BECMG 2022/2024 19005KT FM210000 19005KT P6SM BKN100 FM210200 08007KT P6SM -RASN OVC060 FM210500 11007KT 5SM -RASN BR BKN020 OVC050 RMK FCST BASED ON AUTO OBS. NXT FCST BY 210200Z

Mar-20@
20:00 UTC

Mar-20 @ 20:00 UTC

Mar-20@
22:00 UTC

Mar-20 @ 22:00 UTC

TAF CYOO 201939Z 2020/2108 18010G20KT P6SM FEW040 SCT120

Expired

Wind
  • 180° at 10 KTS
  • {Gusting to 20 KTS
Cloud Levels
  • Few at 4,000' AGL
  • Scattered at 12,000' AGL

Mar-20@
22:00 UTC

Mar-20 @ 22:00 UTC

Mar-21@
00:00 UTC

Mar-21 @ 00:00 UTC

BECMG 2022/2024 19005KT

Becoming

Becoming Conditions expected by Thu, Mar 21, 2019 @ 00:00 UTC

Wind
  • 190° at 5 KTS
Cloud Levels
  • Few at 4,000' AGL
  • Scattered at 12,000' AGL

Mar-21@
00:00 UTC

Mar-21 @ 00:00 UTC

Mar-21@
02:00 UTC

Mar-21 @ 02:00 UTC

FM210000 19005KT P6SM BKN100

From

From Standard forecast or significant change

Wind
  • 190° at 5 KTS
Cloud Levels
  • Broken at 10,000' AGL

Mar-21@
02:00 UTC

Mar-21 @ 02:00 UTC

Mar-21@
05:00 UTC

Mar-21 @ 05:00 UTC

FM210200 08007KT P6SM -RASN OVC060

From

From Standard forecast or significant change

Wind
  • 080° at 7 KTS
Conditions
Light Rain, Light Snow
Cloud Levels
  • Overcast at 6,000' AGL

Mar-21@
05:00 UTC

Mar-21 @ 05:00 UTC

Mar-21@
08:00 UTC

Mar-21 @ 08:00 UTC

FM210500 11007KT 5SM -RASN BR BKN020 OVC050 RMK FCST BASED ON AUTO OBS. NXT FCST BY 210200Z

From

From Standard forecast or significant change

Wind
  • 110° at 7 KTS
Conditions
Light Rain, Light Snow, Mist
Cloud Levels
  • Broken at 2,000' AGL
  • Overcast at 5,000' AGL